Time;durP1;ratioP1;P1;durP2;ratioP2;P2;SDS_P1;SDS_P2;PMS_P1;PMS_P2;Temp;Humidity;BMP_temperature;BMP_pressure;BME280_temperature;BME280_humidity;BME280_pressure;Samples;Min_cycle;Max_cycle;Signal;HPM_P1;HPM_P2
2023/10/13 00:01:52;;;;;;;15.40;8.20;;;;;;;15.01;100.00;100130.67;88228;277;136957;-73
2023/10/13 00:03:54;;;;;;;12.10;7.80;;;;;;;14.95;100.00;100131.27;88518;284;25312;-70
2023/10/13 00:06:02;;;;;;;10.80;7.40;;;;;;;14.91;100.00;100129.53;88411;284;137558;-73
2023/10/13 00:08:05;;;;;;;10.10;7.50;;;;;;;14.88;100.00;100125.64;88339;276;137095;-72
2023/10/13 00:10:18;;;;;;;9.40;7.60;;;;;;;14.85;100.00;100123.28;88454;284;22686;-75
2023/10/13 00:12:23;;;;;;;14.40;7.70;;;;;;;14.81;100.00;100122.28;88228;277;136122;-73
2023/10/13 00:14:33;;;;;;;8.60;7.10;;;;;;;14.77;100.00;100126.79;88363;278;24247;-73
2023/10/13 00:16:39;;;;;;;9.40;7.40;;;;;;;14.74;100.00;100130.44;88375;281;136891;-75
2023/10/13 00:18:43;;;;;;;11.00;7.30;;;;;;;14.72;100.00;100123.94;88432;278;23202;-72
2023/10/13 00:20:49;;;;;;;9.30;6.50;;;;;;;14.71;100.00;100118.04;88307;276;137153;-75
2023/10/13 00:22:52;;;;;;;9.70;7.50;;;;;;;14.70;100.00;100110.30;88632;279;25237;-74
2023/10/13 00:24:58;;;;;;;10.20;8.90;;;;;;;14.68;100.00;100106.80;88509;282;136910;-74
2023/10/13 00:27:04;;;;;;;9.00;8.10;;;;;;;14.70;100.00;100110.14;88687;275;22548;-72
2023/10/13 00:31:12;;;;;;;7.40;6.40;;;;;;;14.74;100.00;100121.15;88664;282;22543;-74
2023/10/13 00:33:14;;;;;;;7.60;6.60;;;;;;;14.75;100.00;100119.70;88482;279;137187;-72
2023/10/13 00:35:24;;;;;;;9.30;6.80;;;;;;;14.78;100.00;100112.12;88528;275;22541;-70
2023/10/13 00:37:41;;;;;;;10.30;7.70;;;;;;;14.80;100.00;100110.08;88362;284;136554;-72
2023/10/13 00:39:45;;;;;;;9.10;6.50;;;;;;;14.80;100.00;100112.59;88619;282;21530;-72
2023/10/13 00:41:58;;;;;;;10.40;6.30;;;;;;;14.79;100.00;100114.33;88274;276;136490;-71
2023/10/13 00:44:09;;;;;;;7.80;6.60;;;;;;;14.76;100.00;100107.39;88406;276;25109;-72
2023/10/13 00:46:13;;;;;;;7.00;5.80;;;;;;;14.76;100.00;100102.73;88589;282;25210;-72
2023/10/13 00:48:15;;;;;;;9.40;5.70;;;;;;;14.76;100.00;100100.20;88465;279;136886;-73
2023/10/13 00:50:17;;;;;;;14.00;6.10;;;;;;;14.76;100.00;100097.89;88363;277;24100;-71
2023/10/13 00:52:19;;;;;;;8.90;5.90;;;;;;;14.77;100.00;100097.27;88419;282;136848;-69
2023/10/13 00:54:26;;;;;;;7.80;5.60;;;;;;;14.76;100.00;100102.77;88430;284;22612;-70
2023/10/13 00:56:30;;;;;;;8.10;6.00;;;;;;;14.75;100.00;100105.38;88456;277;137025;-71
2023/10/13 00:58:34;;;;;;;8.20;5.40;;;;;;;14.76;100.00;100104.70;88625;274;24037;-72
2023/10/13 01:00:46;;;;;;;7.40;5.30;;;;;;;14.78;100.00;100107.73;88525;282;138196;-74
2023/10/13 01:02:55;;;;;;;7.80;5.30;;;;;;;14.79;100.00;100115.64;88308;277;25236;-73
2023/10/13 01:05:00;;;;;;;9.90;6.10;;;;;;;14.80;100.00;100121.14;88483;275;138033;-74
2023/10/13 01:07:04;;;;;;;7.90;6.20;;;;;;;14.81;100.00;100126.25;88576;282;25208;-74
2023/10/13 01:09:17;;;;;;;10.60;4.90;;;;;;;14.81;100.00;100127.98;88379;282;136425;-73
2023/10/13 01:11:23;;;;;;;9.80;6.00;;;;;;;14.86;100.00;100126.42;88757;282;25300;-74
2023/10/13 01:13:26;;;;;;;8.40;6.70;;;;;;;14.87;100.00;100126.77;88433;275;136757;-75
2023/10/13 01:15:33;;;;;;;6.60;6.00;;;;;;;14.90;100.00;100126.85;88609;282;22527;-77
2023/10/13 01:17:36;;;;;;;7.10;6.00;;;;;;;14.91;100.00;100132.45;88308;284;136821;-75
2023/10/13 01:19:45;;;;;;;6.80;6.10;;;;;;;14.83;100.00;100121.80;88459;283;24033;-74
2023/10/13 01:21:47;;;;;;;7.70;5.70;;;;;;;14.89;100.00;100135.67;88507;282;136999;-74
2023/10/13 01:23:53;;;;;;;11.00;6.20;;;;;;;14.90;100.00;100133.17;88503;278;25244;-72
2023/10/13 01:25:56;;;;;;;8.60;5.80;;;;;;;14.90;100.00;100133.46;88229;284;136827;-77
2023/10/13 01:27:59;;;;;;;6.50;5.80;;;;;;;14.88;100.00;100132.16;88454;276;22523;-73
2023/10/13 01:30:09;;;;;;;6.80;5.30;;;;;;;14.88;100.00;100133.07;88342;279;137833;-72
2023/10/13 01:32:12;;;;;;;11.20;6.10;;;;;;;14.89;100.00;100133.64;88600;282;136878;-75
2023/10/13 01:34:21;;;;;;;6.90;6.20;;;;;;;14.91;100.00;100135.80;88582;282;25336;-74
2023/10/13 01:36:35;;;;;;;8.50;6.30;;;;;;;14.93;100.00;100140.86;88684;275;136680;-73
2023/10/13 01:38:38;;;;;;;8.30;6.20;;;;;;;14.97;100.00;100140.86;88646;279;22529;-72
2023/10/13 01:40:40;;;;;;;7.80;6.50;;;;;;;15.00;100.00;100145.20;88366;282;137458;-74
2023/10/13 01:42:42;;;;;;;7.20;5.40;;;;;;;15.06;100.00;100148.70;88394;279;24058;-75
2023/10/13 01:44:44;;;;;;;11.30;6.00;;;;;;;15.08;100.00;100147.48;88364;275;137195;-75
2023/10/13 01:46:47;;;;;;;7.50;5.90;;;;;;;15.09;100.00;100150.04;88540;282;22544;-75
2023/10/13 01:48:49;;;;;;;6.30;5.70;;;;;;;15.09;100.00;100151.89;88685;280;137267;-74
2023/10/13 01:50:55;;;;;;;7.80;6.60;;;;;;;15.06;100.00;100154.98;88611;280;25204;-74
2023/10/13 01:53:11;;;;;;;10.20;6.20;;;;;;;15.02;100.00;100152.50;88604;279;138293;-72
2023/10/13 01:55:14;;;;;;;6.90;6.40;;;;;;;14.98;100.00;100155.48;88729;271;24673;-74
2023/10/13 01:57:23;;;;;;;7.50;6.70;;;;;;;14.99;100.00;100154.52;88537;279;136878;-73
2023/10/13 01:59:26;;;;;;;8.60;5.60;;;;;;;14.98;100.00;100153.73;89094;281;25303;-73
2023/10/13 02:01:34;;;;;;;7.10;5.50;;;;;;;14.98;100.00;100161.54;88511;280;137001;-73
2023/10/13 02:03:46;;;;;;;10.20;7.40;;;;;;;15.01;100.00;100169.16;88699;271;22634;-74
2023/10/13 02:05:49;;;;;;;7.20;5.30;;;;;;;15.02;100.00;100172.32;88661;280;138412;-74
2023/10/13 02:07:51;;;;;;;7.50;5.40;;;;;;;15.03;100.00;100174.91;88644;279;22531;-74
2023/10/13 02:09:54;;;;;;;6.80;6.00;;;;;;;15.03;100.00;100174.27;88514;279;136908;-74
2023/10/13 02:11:57;;;;;;;6.80;6.20;;;;;;;15.04;100.00;100179.30;88646;276;22703;-77
2023/10/13 02:14:00;;;;;;;7.70;6.10;;;;;;;15.07;100.00;100184.05;88948;279;137047;-73
2023/10/13 02:16:04;;;;;;;6.20;5.60;;;;;;;15.09;100.00;100189.16;88678;271;23527;-73
2023/10/13 02:18:06;;;;;;;8.90;6.40;;;;;;;15.09;100.00;100187.55;88659;278;22524;-75
2023/10/13 02:20:14;;;;;;;9.50;6.00;;;;;;;15.10;100.00;100187.89;88432;278;136425;-74
2023/10/13 02:22:27;;;;;;;8.70;5.40;;;;;;;15.14;100.00;100191.70;88665;276;22473;-73
2023/10/13 02:24:30;;;;;;;6.40;5.50;;;;;;;15.19;100.00;100190.29;88600;279;136890;-74
2023/10/13 02:26:32;;;;;;;8.10;4.90;;;;;;;15.20;100.00;100190.48;88895;278;24131;-75
2023/10/13 02:28:34;;;;;;;9.70;6.80;;;;;;;15.19;100.00;100191.73;89292;280;137941;-73
2023/10/13 02:30:48;;;;;;;6.40;5.80;;;;;;;15.18;100.00;100195.33;89617;279;25080;-72
2023/10/13 02:32:53;;;;;;;6.50;5.60;;;;;;;15.16;100.00;100193.37;89445;276;139250;-74
2023/10/13 02:34:57;;;;;;;9.50;6.60;;;;;;;15.15;100.00;100197.10;89500;276;25437;-77
2023/10/13 02:36:59;;;;;;;;;;;;;;;15.15;100.00;100202.34;89413;276;136856;-73
2023/10/13 02:39:07;;;;;;;8.50;6.00;;;;;;;15.15;100.00;100201.64;89319;276;22471;-74
2023/10/13 02:41:26;;;;;;;6.40;5.80;;;;;;;15.17;100.00;100207.40;88787;279;139035;-78
2023/10/13 02:43:33;;;;;;;7.60;6.30;;;;;;;15.16;100.00;100207.45;89039;272;22526;-77
2023/10/13 02:45:36;;;;;;;8.20;6.40;;;;;;;15.16;100.00;100208.60;88818;279;137143;-77
2023/10/13 02:47:38;;;;;;;7.80;6.30;;;;;;;15.14;100.00;100211.15;88924;280;22582;-77
2023/10/13 02:49:46;;;;;;;8.80;6.70;;;;;;;15.14;100.00;100211.11;88780;281;136546;-78
2023/10/13 02:51:47;;;;;;;6.90;6.10;;;;;;;15.13;100.00;100214.95;88932;272;25210;-77
2023/10/13 02:53:49;;;;;;;6.60;6.00;;;;;;;15.13;100.00;100212.15;88732;280;137013;-75
2023/10/13 02:55:53;;;;;;;7.50;6.70;;;;;;;15.16;100.00;100216.86;89031;279;25103;-77
2023/10/13 02:57:56;;;;;;;7.30;5.80;;;;;;;15.16;100.00;100214.72;88877;279;136815;-77
2023/10/13 03:00:11;;;;;;;6.80;5.80;;;;;;;15.15;100.00;100214.08;88818;272;22542;-77
2023/10/13 03:02:29;;;;;;;9.80;6.70;;;;;;;15.15;100.00;100218.50;88792;280;25208;-77
2023/10/13 03:04:32;;;;;;;9.60;7.70;;;;;;;15.15;100.00;100220.81;88735;280;136761;-80
2023/10/13 03:06:35;;;;;;;5.70;5.20;;;;;;;15.16;100.00;100219.22;88790;276;25054;-80
2023/10/13 03:08:38;;;;;;;7.30;5.90;;;;;;;15.15;100.00;100222.21;88829;278;136657;-81
2023/10/13 03:10:46;;;;;;;7.90;6.90;;;;;;;15.14;100.00;100219.82;88984;276;25131;-79
2023/10/13 03:12:48;;;;;;;7.60;6.30;;;;;;;15.14;100.00;100219.95;88660;277;137179;-74
2023/10/13 03:15:12;;;;;;;9.50;6.80;;;;;;;15.14;100.00;100224.70;88838;276;22539;-78
2023/10/13 03:17:16;;;;;;;7.90;5.80;;;;;;;15.10;100.00;100224.31;88883;279;136913;-78
2023/10/13 03:19:19;;;;;;;6.50;5.90;;;;;;;15.06;100.00;100227.83;88868;279;25213;-78
2023/10/13 03:21:29;;;;;;;8.00;7.00;;;;;;;15.03;100.00;100230.45;88828;273;136858;-78
2023/10/13 03:23:45;;;;;;;9.80;6.90;;;;;;;15.03;100.00;100230.46;88828;277;22688;-77
2023/10/13 03:25:49;;;;;;;10.70;6.50;;;;;;;15.05;100.00;100229.90;88451;279;137534;-77
2023/10/13 03:30:10;;;;;;;9.70;5.90;;;;;;;15.09;100.00;100228.04;88726;279;24225;-78
2023/10/13 03:32:15;;;;;;;7.80;5.70;;;;;;;15.12;100.00;100228.71;88626;279;137345;-76
2023/10/13 03:34:19;;;;;;;7.50;6.30;;;;;;;15.11;100.00;100229.96;88697;277;22534;-76
2023/10/13 03:36:55;;;;;;;7.60;6.80;;;;;;;15.09;100.00;100235.82;88548;280;137380;-75
2023/10/13 03:38:44;;;;;;;8.40;6.60;;;;;;;15.09;100.00;100241.15;88658;280;25216;-77
2023/10/13 03:41:19;;;;;;;6.80;6.20;;;;;;;15.09;100.00;100242.48;88530;280;136889;-77
2023/10/13 03:43:29;;;;;;;8.70;7.40;;;;;;;15.04;100.00;100240.93;88637;277;25937;-79
2023/10/13 03:45:38;;;;;;;6.70;5.80;;;;;;;15.05;100.00;100243.68;88564;273;137176;-77
2023/10/13 03:47:45;;;;;;;6.90;6.10;;;;;;;15.04;100.00;100249.35;88889;276;24011;-77
2023/10/13 03:49:51;;;;;;;9.40;6.90;;;;;;;15.03;100.00;100253.05;88762;272;138388;-76
2023/10/13 03:51:55;;;;;;;7.20;6.20;;;;;;;15.02;100.00;100251.80;88572;273;25233;-78
2023/10/13 03:53:58;;;;;;;14.50;7.10;;;;;;;15.04;100.00;100255.15;88644;276;138405;-83
2023/10/13 03:56:08;;;;;;;9.10;6.70;;;;;;;15.07;100.00;100254.86;88775;280;22534;-84
2023/10/13 03:58:11;;;;;;;6.50;5.90;;;;;;;15.11;100.00;100255.10;88877;280;25229;-74
2023/10/13 04:00:21;;;;;;;7.20;5.90;;;;;;;15.13;100.00;100255.98;88582;280;139742;-73
2023/10/13 04:02:27;;;;;;;7.90;5.80;;;;;;;15.13;100.00;100261.00;88441;273;24058;-75
2023/10/13 04:04:34;;;;;;;8.10;6.70;;;;;;;15.13;100.00;100262.21;88746;273;137979;-76
2023/10/13 04:06:51;;;;;;;6.70;6.10;;;;;;;15.14;100.00;100262.73;88747;281;22522;-73
2023/10/13 04:18:33;;;;;;;5.40;4.90;;;;;;;14.98;100.00;100266.46;88567;273;22549;-72
2023/10/13 04:20:38;;;;;;;7.00;5.80;;;;;;;14.98;100.00;100268.77;88396;273;137172;-74
2023/10/13 04:25:00;;;;;;;9.40;6.50;;;;;;;14.99;100.00;100271.33;88327;273;137079;-74
2023/10/13 04:29:27;;;;;;;7.70;5.90;;;;;;;14.90;100.00;100284.86;88430;273;137160;-74
2023/10/13 04:31:56;;;;;;;7.90;5.50;;;;;;;14.85;100.00;100291.62;88456;278;22539;-74
2023/10/13 04:34:01;;;;;;;6.00;5.40;;;;;;;14.83;100.00;100301.92;88763;280;136707;-74
2023/10/13 04:36:16;;;;;;;7.50;4.80;;;;;;;14.84;100.00;100303.89;88421;273;137658;-73
2023/10/13 04:38:20;;;;;;;8.30;6.30;;;;;;;14.84;100.00;100305.73;88493;278;24044;-75
2023/10/13 04:40:25;;;;;;;6.20;5.20;;;;;;;14.83;100.00;100307.45;88526;273;137315;-76
2023/10/13 04:42:39;;;;;;;6.00;5.40;;;;;;;14.83;100.00;100315.70;88676;272;25546;-75
2023/10/13 04:48:47;;;;;;;;;;;;;;;14.78;100.00;100330.10;91259;280;137079;-76
2023/10/13 04:51:18;;;;;;;6.00;5.40;;;;;;;14.73;100.00;100324.72;90012;277;24858;-76
2023/10/13 04:54:04;;;;;;;6.20;5.30;;;;;;;14.77;100.00;100333.66;88427;272;137405;-76
2023/10/13 04:58:11;;;;;;;6.90;6.20;;;;;;;14.74;100.00;100337.64;88358;276;137011;-74
2023/10/13 05:02:43;;;;;;;6.40;5.80;;;;;;;14.76;100.00;100341.34;88576;279;23862;-76
2023/10/13 06:29:10;;;;;;;4.60;4.20;;;;;;;15.73;100.00;100430.71;88443;272;137738;-76
2023/10/13 06:31:15;;;;;;;5.10;4.60;;;;;;;15.85;100.00;100441.90;88590;272;22680;-71
2023/10/13 06:33:17;;;;;;;6.40;4.30;;;;;;;15.89;100.00;100442.61;88435;276;138641;-75
2023/10/13 06:35:23;;;;;;;5.40;4.20;;;;;;;15.82;100.00;100446.89;88412;272;25103;-73
2023/10/13 06:37:26;;;;;;;4.50;4.10;;;;;;;15.70;100.00;100444.61;91233;279;138831;-74
2023/10/13 06:39:36;;;;;;;6.90;4.30;;;;;;;15.59;100.00;100450.60;89945;279;22526;-76
2023/10/13 06:41:40;;;;;;;4.90;4.40;;;;;;;15.51;100.00;100454.89;88371;274;138591;-75
2023/10/13 06:43:45;;;;;;;6.40;4.90;;;;;;;15.43;100.00;100457.59;88527;272;22994;-74
2023/10/13 06:46:00;;;;;;;4.80;4.30;;;;;;;15.34;100.00;100458.38;90564;281;137078;-77
2023/10/13 06:48:04;;;;;;;5.30;4.50;;;;;;;15.25;100.00;100462.08;88577;276;22559;-76
2023/10/13 06:50:15;;;;;;;4.70;4.30;;;;;;;15.13;100.00;100465.74;88672;277;25041;-76
2023/10/13 06:52:18;;;;;;;4.20;3.70;;;;;;;15.05;100.00;100469.23;88500;276;137407;-76
2023/10/13 06:54:20;;;;;;;9.00;4.50;;;;;;;15.05;100.00;100468.34;88509;273;24061;-75
2023/10/13 06:56:26;;;;;;;4.00;3.60;;;;;;;15.08;100.00;100466.89;88483;280;137118;-76
2023/10/13 06:58:29;;;;;;;4.90;3.70;;;;;;;15.18;100.00;100464.44;88687;273;22542;-75
2023/10/13 07:00:38;;;;;;;4.60;3.40;;;;;;;15.29;100.00;100469.54;88412;273;137088;-74
2023/10/13 07:02:40;;;;;;;5.90;2.90;;;;;;;15.38;100.00;100470.38;88450;281;23114;-77
2023/10/13 07:04:42;;;;;;;7.80;3.10;;;;;;;15.49;100.00;100466.98;88404;282;136580;-75
2023/10/13 07:06:48;;;;;;;4.80;3.70;;;;;;;15.65;100.00;100470.90;88748;280;24258;-75
2023/10/13 07:08:53;;;;;;;4.90;3.80;;;;;;;15.79;100.00;100473.44;88457;274;138338;-78
2023/10/13 07:11:02;;;;;;;4.50;3.50;;;;;;;15.89;100.00;100479.00;88471;273;25189;-74
2023/10/13 07:13:07;;;;;;;6.30;3.60;;;;;;;15.95;100.00;100479.16;88479;281;136593;-72
2023/10/13 07:17:25;;;;;;;6.30;3.50;;;;;;;15.85;100.00;100490.11;88487;277;136663;-75
2023/10/13 07:19:29;;;;;;;6.70;5.50;;;;;;;15.76;100.00;100492.13;88768;274;22529;-74
2023/10/13 07:21:33;;;;;;;7.90;4.90;;;;;;;15.67;100.00;100493.95;88564;273;137747;-74
2023/10/13 07:23:38;;;;;;;5.60;4.40;;;;;;;15.62;100.00;100500.73;88604;278;22538;-75
2023/10/13 07:25:40;;;;;;;5.60;4.70;;;;;;;15.49;100.00;100491.55;88397;273;138623;-75
2023/10/13 07:27:42;;;;;;;6.60;4.70;;;;;;;15.53;100.00;100503.06;88664;280;22541;-77
2023/10/13 07:29:45;;;;;;;4.10;3.40;;;;;;;15.52;100.00;100501.77;88794;273;137095;-75
2023/10/13 07:31:47;;;;;;;4.80;4.10;;;;;;;15.51;100.00;100500.27;88463;273;22531;-73
2023/10/13 07:33:49;;;;;;;4.30;3.80;;;;;;;15.55;100.00;100503.38;88419;273;137303;-71
2023/10/13 07:36:24;;;;;;;4.80;3.50;;;;;;;15.60;100.00;100498.88;88558;280;25134;-74
2023/10/13 07:38:31;;;;;;;5.60;5.10;;;;;;;15.64;100.00;100502.04;88594;276;22618;-74
2023/10/13 07:40:39;;;;;;;6.20;4.10;;;;;;;15.64;100.00;100497.98;88502;280;138211;-72
2023/10/13 07:42:43;;;;;;;6.40;4.10;;;;;;;15.62;100.00;100502.29;88558;276;22533;-74
2023/10/13 07:44:47;;;;;;;5.20;3.40;;;;;;;15.61;100.00;100506.86;88489;277;136791;-71
2023/10/13 07:46:58;;;;;;;4.10;3.70;;;;;;;15.56;100.00;100507.58;88442;274;25638;-72
2023/10/13 07:49:10;;;;;;;6.90;3.90;;;;;;;15.54;100.00;100508.80;88487;273;136477;-71
2023/10/13 07:51:18;;;;;;;3.90;3.50;;;;;;;15.55;100.00;100503.34;88547;277;22817;-71
2023/10/13 07:53:23;;;;;;;6.20;3.70;;;;;;;15.57;100.00;100502.86;88466;273;136833;-74
2023/10/13 07:55:25;;;;;;;5.30;3.90;;;;;;;15.61;100.00;100505.24;88450;273;24070;-75
2023/10/13 07:57:30;;;;;;;6.30;4.00;;;;;;;15.62;100.00;100508.08;88660;276;137185;-72
2023/10/13 07:59:32;;;;;;;4.00;3.60;;;;;;;15.67;100.00;100513.89;88479;273;24256;-72
2023/10/13 08:01:34;;;;;;;6.10;4.30;;;;;;;15.69;100.00;100518.05;88501;273;137273;-77
2023/10/13 08:03:44;;;;;;;3.20;2.90;;;;;;;15.69;100.00;100521.17;88803;274;25242;-76
2023/10/13 08:06:04;;;;;;;3.40;3.10;;;;;;;15.73;100.00;100522.15;88492;281;137032;-74
2023/10/13 08:08:14;;;;;;;4.60;4.20;;;;;;;15.75;100.00;100525.72;88426;280;137523;-77
2023/10/13 08:10:16;;;;;;;3.20;2.60;;;;;;;15.79;100.00;100527.75;88444;273;22534;-74
2023/10/13 08:12:21;;;;;;;6.50;3.30;;;;;;;15.80;100.00;100531.59;88410;280;137654;-74
2023/10/13 08:14:28;;;;;;;6.60;2.70;;;;;;;15.79;100.00;100536.65;88515;273;23779;-72
2023/10/13 08:16:54;;;;;;;4.30;3.40;;;;;;;15.81;100.00;100536.63;88420;273;136492;-74
2023/10/13 08:18:56;;;;;;;5.10;3.50;;;;;;;15.86;100.00;100540.35;88665;280;25102;-75
2023/10/13 08:21:05;;;;;;;5.10;4.40;;;;;;;15.88;100.00;100538.96;88714;277;137876;-73
2023/10/13 08:23:13;;;;;;;4.30;3.50;;;;;;;15.88;100.00;100537.56;88638;280;22518;-71
2023/10/13 08:25:20;;;;;;;3.20;2.90;;;;;;;15.88;100.00;100536.54;88398;273;137175;-70
2023/10/13 08:27:34;;;;;;;4.50;3.10;;;;;;;15.89;100.00;100540.95;88725;281;22626;-73
2023/10/13 08:34:06;;;;;;;4.50;2.70;;;;;;;15.87;100.00;100542.54;88551;273;25121;-74
2023/10/13 08:36:27;;;;;;;2.50;2.40;;;;;;;15.90;100.00;100544.08;88472;272;137422;-74
2023/10/13 08:38:29;;;;;;;1.50;1.40;;;;;;;16.00;100.00;100542.73;91268;280;22507;-73
2023/10/13 08:40:43;;;;;;;2.30;2.10;;;;;;;16.03;100.00;100536.98;88383;272;137181;-73
2023/10/13 08:44:52;;;;;;;5.30;1.60;;;;;;;16.14;100.00;100544.96;88471;273;136971;-72
2023/10/13 08:47:06;;;;;;;2.60;1.40;;;;;;;16.11;100.00;100548.05;88596;273;22530;-72
2023/10/13 08:51:31;;;;;;;2.80;1.00;;;;;;;16.05;100.00;100558.33;88678;280;24495;-71
2023/10/13 08:53:44;;;;;;;2.50;1.10;;;;;;;15.98;100.00;100556.85;88505;277;136338;-71
2023/10/13 08:56:02;;;;;;;2.30;1.10;;;;;;;15.88;100.00;100562.73;88576;276;22537;-71
2023/10/13 08:58:13;;;;;;;2.20;1.00;;;;;;;15.78;100.00;100561.53;88549;273;24476;-72
2023/10/13 09:00:55;;;;;;;4.20;1.60;;;;;;;15.80;100.00;100558.64;88570;275;136519;-73
2023/10/13 09:02:59;;;;;;;2.40;1.80;;;;;;;15.87;100.00;100556.92;88743;276;24655;-72
2023/10/13 09:05:09;;;;;;;7.00;2.70;;;;;;;15.91;100.00;100557.11;88553;278;138016;-73
2023/10/13 09:07:21;;;;;;;2.40;1.70;;;;;;;15.97;100.00;100564.44;88640;280;24099;-72
2023/10/13 09:09:27;;;;;;;7.20;2.90;;;;;;;16.03;100.00;100565.41;88447;282;141334;-73
2023/10/13 09:11:37;;;;;;;2.60;1.80;;;;;;;16.05;100.00;100568.88;88631;280;22596;-75
2023/10/13 09:13:45;;;;;;;5.70;2.60;;;;;;;16.06;100.00;100570.27;88518;280;136742;-77
2023/10/13 09:15:59;;;;;;;3.20;2.20;;;;;;;16.02;100.00;100563.77;88769;276;24024;-73
2023/10/13 09:18:38;;;;;;;2.60;1.40;;;;;;;16.12;100.00;100573.83;88472;280;136010;-74
2023/10/13 09:22:42;;;;;;;2.40;0.90;;;;;;;16.23;100.00;100579.28;88560;273;22600;-73
2023/10/13 09:24:51;;;;;;;2.40;1.00;;;;;;;16.21;100.00;100580.52;88429;273;137308;-76
2023/10/13 09:26:55;;;;;;;3.30;1.50;;;;;;;16.18;100.00;100580.98;88644;272;25078;-76
2023/10/13 09:28:57;;;;;;;3.10;1.80;;;;;;;16.14;100.00;100584.60;88577;272;136338;-74
2023/10/13 09:30:59;;;;;;;2.90;1.10;;;;;;;16.14;100.00;100578.98;88735;272;22530;-72
2023/10/13 09:33:04;;;;;;;4.40;1.10;;;;;;;16.16;100.00;100578.27;88463;278;136520;-75
2023/10/13 09:35:13;;;;;;;3.10;1.50;;;;;;;16.20;100.00;100578.27;88601;273;24099;-73
2023/10/13 09:37:20;;;;;;;3.80;2.10;;;;;;;16.25;100.00;100584.06;88451;281;136606;-76
2023/10/13 09:39:35;;;;;;;5.60;2.40;;;;;;;16.30;98.70;100577.20;88592;281;25190;-74
2023/10/13 09:41:39;;;;;;;1.80;1.30;;;;;;;16.33;99.23;100570.26;88407;277;137579;-76
2023/10/13 09:43:43;;;;;;;2.90;1.80;;;;;;;16.37;99.07;100567.83;88698;273;25134;-76
2023/10/13 09:46:02;;;;;;;3.20;1.00;;;;;;;16.35;98.49;100552.90;88612;280;136834;-75
2023/10/13 09:48:26;;;;;;;3.60;1.10;;;;;;;16.45;98.64;100563.81;88462;274;136603;-75
2023/10/13 09:50:33;;;;;;;2.10;1.20;;;;;;;16.49;99.20;100568.95;88494;274;25071;-74
2023/10/13 09:52:37;;;;;;;3.90;1.50;;;;;;;16.52;99.14;100562.77;88515;277;138249;-76
2023/10/13 09:54:44;;;;;;;3.20;1.60;;;;;;;16.64;98.12;100564.00;88657;280;22631;-75
2023/10/13 09:56:56;;;;;;;1.90;1.60;;;;;;;16.68;98.07;100563.38;88531;280;136596;-74
2023/10/13 09:59:12;;;;;;;2.30;1.50;;;;;;;16.71;97.59;100567.61;88644;277;22539;-76
2023/10/13 10:01:31;;;;;;;4.30;2.40;;;;;;;16.69;95.80;100569.16;88506;277;136257;-78
2023/10/13 10:03:50;;;;;;;3.20;1.20;;;;;;;16.67;96.76;100565.83;88653;280;22538;-77
2023/10/13 10:06:03;;;;;;;2.40;1.40;;;;;;;16.68;96.89;100557.25;89082;274;137318;-75
2023/10/13 10:08:05;;;;;;;3.50;1.50;;;;;;;16.71;97.76;100550.96;88667;281;136872;-74
2023/10/13 10:10:11;;;;;;;2.20;1.30;;;;;;;16.72;97.69;100552.39;88615;272;25166;-74
2023/10/13 10:12:39;;;;;;;3.50;1.20;;;;;;;16.72;97.65;100552.40;88587;276;136461;-77
2023/10/13 10:14:56;;;;;;;1.00;0.90;;;;;;;16.71;97.85;100553.88;88645;277;22548;-78
2023/10/13 10:17:09;;;;;;;2.10;1.30;;;;;;;16.70;98.16;100551.14;88803;278;135911;-74
2023/10/13 10:19:11;;;;;;;4.50;1.50;;;;;;;16.71;97.32;100546.13;88800;276;22688;-73
2023/10/13 10:21:15;;;;;;;2.30;1.20;;;;;;;16.72;97.39;100545.89;88713;280;137174;-74
2023/10/13 10:23:26;;;;;;;2.30;0.90;;;;;;;16.73;96.62;100552.76;88960;280;26244;-75
2023/10/13 10:25:34;;;;;;;2.20;1.10;;;;;;;16.73;96.58;100551.77;88751;278;136413;-76
2023/10/13 10:27:37;;;;;;;3.60;1.00;;;;;;;16.70;96.69;100560.10;88924;276;22552;-76
2023/10/13 10:29:39;;;;;;;1.20;0.90;;;;;;;16.67;96.75;100563.14;90290;273;135931;-75
2023/10/13 10:31:44;;;;;;;3.20;1.40;;;;;;;16.69;97.05;100554.67;89044;275;24473;-71
2023/10/13 10:33:50;;;;;;;1.40;1.30;;;;;;;16.72;97.09;100552.15;89078;272;138310;-76
2023/10/13 10:36:00;;;;;;;2.70;1.10;;;;;;;16.79;96.13;100552.66;89144;271;23424;-75
2023/10/13 10:38:32;;;;;;;1.50;1.00;;;;;;;16.79;95.59;100555.52;88843;272;22543;-75
2023/10/13 10:40:47;;;;;;;1.60;1.50;;;;;;;16.73;93.57;100559.32;89472;276;136795;-75
2023/10/13 10:42:52;;;;;;;1.40;0.80;;;;;;;16.68;93.87;100555.89;89523;272;23974;-73
2023/10/13 10:45:05;;;;;;;1.60;0.70;;;;;;;16.67;93.49;100555.77;88896;273;135866;-75
2023/10/13 10:47:38;;;;;;;2.00;0.90;;;;;;;16.63;93.49;100547.50;89368;277;22699;-73
2023/10/13 10:49:38;;;;;;;2.00;1.00;;;;;;;16.69;93.71;100551.94;89267;279;137701;-73
2023/10/13 10:51:45;;;;;;;3.10;1.50;;;;;;;16.69;92.90;100544.73;89017;272;22867;-73
2023/10/13 10:53:52;;;;;;;3.20;1.10;;;;;;;16.69;91.41;100542.05;90064;277;136289;-71
2023/10/13 10:56:05;;;;;;;4.90;0.90;;;;;;;16.70;90.40;100539.02;90657;282;22205;-80
2023/10/13 10:58:23;;;;;;;4.70;1.40;;;;;;;16.74;90.40;100533.08;90349;280;22822;-75
2023/10/13 11:00:37;;;;;;;1.50;0.90;;;;;;;16.80;90.15;100533.61;90107;279;136438;-78
2023/10/13 11:02:39;;;;;;;1.90;0.50;;;;;;;16.83;88.79;100533.75;90169;279;24046;-76
2023/10/13 11:04:51;;;;;;;1.30;0.50;;;;;;;16.90;88.36;100539.98;89572;274;137499;-77
2023/10/13 11:06:55;;;;;;;1.40;0.70;;;;;;;16.91;87.46;100546.80;89285;277;22184;-80
2023/10/13 11:09:18;;;;;;;5.40;1.10;;;;;;;16.92;86.83;100540.49;88897;273;136292;-81
2023/10/13 11:11:34;;;;;;;3.30;0.70;;;;;;;16.94;85.68;100539.35;89087;273;22126;-80
2023/10/13 11:13:50;;;;;;;3.30;1.10;;;;;;;16.97;84.41;100536.30;88635;280;137424;-77
2023/10/13 11:17:48;;;;;;;1.80;0.60;;;;;;;16.82;84.02;100529.77;87068;308;602420;-78
2023/10/13 11:19:50;;;;;;;1.20;0.80;;;;;;;16.72;84.38;100529.58;88361;296;23963;-86
2023/10/13 11:21:57;;;;;;;3.00;0.90;;;;;;;16.74;84.78;100540.80;88179;295;135832;-84
2023/10/13 11:24:08;;;;;;;1.50;0.60;;;;;;;16.72;84.92;100541.67;88763;285;23201;-74
2023/10/13 11:26:11;;;;;;;2.60;0.70;;;;;;;16.67;85.19;100543.14;88342;285;25086;-80
2023/10/13 11:28:35;;;;;;;5.20;1.10;;;;;;;16.60;85.58;100542.67;88251;280;135876;-79
2023/10/13 11:32:41;;;;;;;7.20;1.80;;;;;;;16.41;86.53;100537.98;88827;282;135730;-79
2023/10/13 11:34:43;;;;;;;3.50;1.00;;;;;;;16.41;86.79;100546.35;88690;287;22628;-81
2023/10/13 11:36:45;;;;;;;2.10;0.70;;;;;;;16.38;86.95;100543.19;88916;275;136427;-80
2023/10/13 11:43:15;;;;;;;1.80;1.00;;;;;;;16.43;87.90;100544.38;89132;282;22605;-77
2023/10/13 11:45:29;;;;;;;1.60;0.90;;;;;;;16.46;87.48;100546.95;88681;281;135871;-74
2023/10/13 11:47:47;;;;;;;3.40;1.50;;;;;;;16.49;86.53;100548.38;88572;274;25149;-79
2023/10/13 11:49:56;;;;;;;3.00;1.00;;;;;;;16.48;86.45;100543.99;88563;274;137354;-80
2023/10/13 11:52:10;;;;;;;3.30;1.10;;;;;;;16.49;86.11;100544.93;88725;275;22552;-78
2023/10/13 11:54:21;;;;;;;1.90;1.10;;;;;;;16.52;85.46;100538.84;88660;274;25106;-81
2023/10/13 11:56:24;;;;;;;1.90;0.70;;;;;;;16.52;84.94;100535.77;89456;279;136693;-83
2023/10/13 11:58:28;;;;;;;3.70;0.80;;;;;;;16.52;84.92;100531.80;89035;281;22580;-72
2023/10/13 12:05:37;;;;;;;1.60;1.50;;;;;;;16.59;83.81;100534.20;88233;281;135683;-67
2023/10/13 12:07:48;;;;;;;3.20;1.20;;;;;;;16.60;83.17;100534.06;88243;281;22632;-69
2023/10/13 12:12:00;;;;;;;4.40;0.70;;;;;;;16.67;82.91;100527.53;88512;274;24017;-68
2023/10/13 12:14:11;;;;;;;2.70;1.00;;;;;;;16.69;82.70;100526.22;88433;274;135824;-66
2023/10/13 12:16:19;;;;;;;1.70;0.70;;;;;;;16.73;82.22;100527.70;88387;274;138244;-66